sensor_id;sensor_type;location;lat;lon;timestamp;P1;durP1;ratioP1;P2;durP2;ratioP2
20381;SDS011;10350;51.280;12.400;2023-12-07T05:49:34;37.80;;;34.90;;
20381;SDS011;10350;51.280;12.400;2023-12-07T14:22:40;42.10;;;39.35;;
20381;SDS011;10350;51.280;12.400;2023-12-07T14:25:11;42.10;;;39.30;;
20381;SDS011;10350;51.280;12.400;2023-12-07T14:27:37;40.67;;;37.95;;
20381;SDS011;10350;51.280;12.400;2023-12-07T14:30:03;40.97;;;38.10;;
20381;SDS011;10350;51.280;12.400;2023-12-07T14:32:48;39.53;;;36.95;;
20381;SDS011;10350;51.280;12.400;2023-12-07T14:35:21;42.88;;;40.08;;
20381;SDS011;10350;51.280;12.400;2023-12-07T14:37:48;39.08;;;36.50;;
20381;SDS011;10350;51.280;12.400;2023-12-07T14:40:17;41.08;;;38.25;;
20381;SDS011;10350;51.280;12.400;2023-12-07T14:42:43;41.30;;;38.50;;
20381;SDS011;10350;51.280;12.400;2023-12-07T14:45:11;38.65;;;36.03;;
20381;SDS011;10350;51.280;12.400;2023-12-07T14:47:38;38.38;;;35.92;;
20381;SDS011;10350;51.280;12.400;2023-12-07T14:50:05;41.03;;;38.42;;
20381;SDS011;10350;51.280;12.400;2023-12-07T14:52:31;44.10;;;41.13;;
20381;SDS011;10350;51.280;12.400;2023-12-07T14:54:57;41.15;;;38.53;;
20381;SDS011;10350;51.280;12.400;2023-12-07T14:57:23;43.38;;;40.35;;
20381;SDS011;10350;51.280;12.400;2023-12-07T14:59:49;40.72;;;38.00;;
20381;SDS011;10350;51.280;12.400;2023-12-07T15:02:18;42.35;;;39.70;;
20381;SDS011;10350;51.280;12.400;2023-12-07T15:04:44;42.25;;;39.55;;
20381;SDS011;10350;51.280;12.400;2023-12-07T15:07:10;41.95;;;38.83;;
20381;SDS011;10350;51.280;12.400;2023-12-07T15:09:36;43.15;;;40.35;;
20381;SDS011;10350;51.280;12.400;2023-12-07T15:12:02;41.67;;;38.72;;
20381;SDS011;10350;51.280;12.400;2023-12-07T15:14:28;42.50;;;39.70;;
20381;SDS011;10350;51.280;12.400;2023-12-07T15:16:55;42.05;;;39.17;;
20381;SDS011;10350;51.280;12.400;2023-12-07T15:19:21;41.92;;;39.35;;
20381;SDS011;10350;51.280;12.400;2023-12-07T15:21:47;41.60;;;38.90;;
20381;SDS011;10350;51.280;12.400;2023-12-07T15:24:20;40.03;;;37.22;;
20381;SDS011;10350;51.280;12.400;2023-12-07T15:26:52;38.28;;;35.83;;
20381;SDS011;10350;51.280;12.400;2023-12-07T15:29:19;35.58;;;33.05;;
20381;SDS011;10350;51.280;12.400;2023-12-07T15:31:45;33.78;;;31.40;;
20381;SDS011;10350;51.280;12.400;2023-12-07T15:34:12;32.10;;;29.77;;
20381;SDS011;10350;51.280;12.400;2023-12-07T15:36:57;33.25;;;30.70;;
20381;SDS011;10350;51.280;12.400;2023-12-07T15:39:44;33.65;;;31.08;;
20381;SDS011;10350;51.280;12.400;2023-12-07T15:42:10;33.63;;;31.40;;
20381;SDS011;10350;51.280;12.400;2023-12-07T15:44:39;34.78;;;32.40;;
20381;SDS011;10350;51.280;12.400;2023-12-07T15:47:05;37.55;;;35.05;;
20381;SDS011;10350;51.280;12.400;2023-12-07T15:49:32;38.22;;;35.53;;
20381;SDS011;10350;51.280;12.400;2023-12-07T15:51:58;36.17;;;33.50;;
20381;SDS011;10350;51.280;12.400;2023-12-07T15:54:24;39.28;;;36.38;;
20381;SDS011;10350;51.280;12.400;2023-12-07T15:56:50;36.90;;;33.90;;
20381;SDS011;10350;51.280;12.400;2023-12-07T15:59:16;37.10;;;34.45;;
20381;SDS011;10350;51.280;12.400;2023-12-07T16:01:42;35.65;;;33.05;;
20381;SDS011;10350;51.280;12.400;2023-12-07T16:04:09;33.47;;;31.08;;
20381;SDS011;10350;51.280;12.400;2023-12-07T16:06:40;34.83;;;32.28;;
20381;SDS011;10350;51.280;12.400;2023-12-07T16:09:06;35.38;;;32.88;;
20381;SDS011;10350;51.280;12.400;2023-12-07T16:11:32;34.92;;;32.47;;
20381;SDS011;10350;51.280;12.400;2023-12-07T16:13:58;36.22;;;33.58;;
20381;SDS011;10350;51.280;12.400;2023-12-07T16:16:24;36.20;;;33.50;;
20381;SDS011;10350;51.280;12.400;2023-12-07T16:21:33;37.08;;;33.97;;
20381;SDS011;10350;51.280;12.400;2023-12-07T16:24:12;36.42;;;33.40;;
20381;SDS011;10350;51.280;12.400;2023-12-07T16:26:43;38.05;;;34.75;;
20381;SDS011;10350;51.280;12.400;2023-12-07T16:32:22;35.20;;;32.67;;
20381;SDS011;10350;51.280;12.400;2023-12-07T16:34:54;35.42;;;32.72;;
20381;SDS011;10350;51.280;12.400;2023-12-07T16:37:21;36.03;;;32.85;;
20381;SDS011;10350;51.280;12.400;2023-12-07T16:40:10;34.60;;;31.65;;
20381;SDS011;10350;51.280;12.400;2023-12-07T16:42:36;37.35;;;34.55;;
20381;SDS011;10350;51.280;12.400;2023-12-07T16:45:09;36.63;;;33.80;;
20381;SDS011;10350;51.280;12.400;2023-12-07T16:47:42;35.63;;;32.67;;
20381;SDS011;10350;51.280;12.400;2023-12-07T16:50:14;34.67;;;31.88;;
20381;SDS011;10350;51.280;12.400;2023-12-07T16:52:40;33.78;;;31.02;;
20381;SDS011;10350;51.280;12.400;2023-12-07T16:55:13;35.28;;;32.55;;
20381;SDS011;10350;51.280;12.400;2023-12-07T16:57:44;33.25;;;30.65;;
20381;SDS011;10350;51.280;12.400;2023-12-07T17:02:44;35.75;;;33.13;;
20381;SDS011;10350;51.280;12.400;2023-12-07T17:05:10;35.25;;;32.60;;
20381;SDS011;10350;51.280;12.400;2023-12-07T17:07:47;36.30;;;33.40;;
20381;SDS011;10350;51.280;12.400;2023-12-07T17:10:21;37.35;;;34.50;;
20381;SDS011;10350;51.280;12.400;2023-12-07T17:12:47;35.78;;;32.97;;
20381;SDS011;10350;51.280;12.400;2023-12-07T17:17:47;34.38;;;31.95;;
20381;SDS011;10350;51.280;12.400;2023-12-07T17:20:21;34.08;;;31.02;;
20381;SDS011;10350;51.280;12.400;2023-12-07T17:22:49;34.63;;;32.10;;
20381;SDS011;10350;51.280;12.400;2023-12-07T17:25:15;37.17;;;34.03;;
20381;SDS011;10350;51.280;12.400;2023-12-07T17:27:49;34.67;;;31.65;;
20381;SDS011;10350;51.280;12.400;2023-12-07T17:30:16;38.17;;;34.90;;
20381;SDS011;10350;51.280;12.400;2023-12-07T17:32:44;33.22;;;30.90;;
20381;SDS011;10350;51.280;12.400;2023-12-07T17:35:10;32.65;;;30.15;;
20381;SDS011;10350;51.280;12.400;2023-12-07T17:37:44;35.90;;;33.20;;
20381;SDS011;10350;51.280;12.400;2023-12-07T17:40:10;36.15;;;33.55;;
20381;SDS011;10350;51.280;12.400;2023-12-07T17:42:36;33.72;;;31.23;;
20381;SDS011;10350;51.280;12.400;2023-12-07T17:45:03;34.63;;;32.00;;
20381;SDS011;10350;51.280;12.400;2023-12-07T17:47:29;33.00;;;30.48;;
20381;SDS011;10350;51.280;12.400;2023-12-07T17:49:55;33.83;;;31.42;;
20381;SDS011;10350;51.280;12.400;2023-12-07T17:52:24;35.55;;;33.03;;
20381;SDS011;10350;51.280;12.400;2023-12-07T17:54:50;34.08;;;31.45;;
20381;SDS011;10350;51.280;12.400;2023-12-07T17:57:16;33.00;;;30.67;;
20381;SDS011;10350;51.280;12.400;2023-12-07T18:02:13;34.83;;;32.33;;
20381;SDS011;10350;51.280;12.400;2023-12-07T18:04:40;34.08;;;31.77;;
20381;SDS011;10350;51.280;12.400;2023-12-07T18:07:06;32.65;;;30.40;;
20381;SDS011;10350;51.280;12.400;2023-12-07T18:09:32;35.80;;;32.97;;
20381;SDS011;10350;51.280;12.400;2023-12-07T18:11:58;34.58;;;32.08;;
20381;SDS011;10350;51.280;12.400;2023-12-07T18:14:24;35.75;;;32.95;;
20381;SDS011;10350;51.280;12.400;2023-12-07T18:16:50;33.95;;;31.42;;
20381;SDS011;10350;51.280;12.400;2023-12-07T18:19:16;34.90;;;32.15;;
20381;SDS011;10350;51.280;12.400;2023-12-07T18:21:42;33.88;;;31.05;;
20381;SDS011;10350;51.280;12.400;2023-12-07T18:24:08;34.03;;;31.42;;
20381;SDS011;10350;51.280;12.400;2023-12-07T18:26:34;34.78;;;32.25;;
20381;SDS011;10350;51.280;12.400;2023-12-07T18:29:01;38.47;;;35.67;;
20381;SDS011;10350;51.280;12.400;2023-12-07T18:31:29;36.53;;;33.67;;
20381;SDS011;10350;51.280;12.400;2023-12-07T18:33:55;38.42;;;35.75;;
20381;SDS011;10350;51.280;12.400;2023-12-07T18:36:21;37.97;;;35.33;;
20381;SDS011;10350;51.280;12.400;2023-12-07T18:38:52;38.88;;;36.03;;
20381;SDS011;10350;51.280;12.400;2023-12-07T18:41:25;39.20;;;36.30;;
20381;SDS011;10350;51.280;12.400;2023-12-07T18:43:51;38.60;;;35.88;;
20381;SDS011;10350;51.280;12.400;2023-12-07T18:46:17;38.22;;;35.60;;
20381;SDS011;10350;51.280;12.400;2023-12-07T18:48:43;40.25;;;37.40;;
20381;SDS011;10350;51.280;12.400;2023-12-07T18:51:09;41.78;;;38.30;;
20381;SDS011;10350;51.280;12.400;2023-12-07T18:53:35;41.05;;;37.85;;
20381;SDS011;10350;51.280;12.400;2023-12-07T18:56:01;38.90;;;35.92;;
20381;SDS011;10350;51.280;12.400;2023-12-07T18:58:28;41.40;;;37.85;;
20381;SDS011;10350;51.280;12.400;2023-12-07T19:00:55;35.95;;;33.40;;
20381;SDS011;10350;51.280;12.400;2023-12-07T19:05:48;32.83;;;29.88;;
20381;SDS011;10350;51.280;12.400;2023-12-07T19:08:20;32.75;;;30.17;;
20381;SDS011;10350;51.280;12.400;2023-12-07T19:13:44;32.35;;;29.70;;
20381;SDS011;10350;51.280;12.400;2023-12-07T19:16:10;30.38;;;27.70;;
20381;SDS011;10350;51.280;12.400;2023-12-07T19:18:39;30.73;;;28.52;;
20381;SDS011;10350;51.280;12.400;2023-12-07T19:21:08;32.75;;;30.00;;
20381;SDS011;10350;51.280;12.400;2023-12-07T19:23:46;33.33;;;30.33;;
20381;SDS011;10350;51.280;12.400;2023-12-07T19:26:14;30.65;;;28.30;;
20381;SDS011;10350;51.280;12.400;2023-12-07T19:28:41;31.15;;;28.50;;
20381;SDS011;10350;51.280;12.400;2023-12-07T19:31:07;30.45;;;27.90;;
20381;SDS011;10350;51.280;12.400;2023-12-07T19:33:33;32.50;;;30.20;;
20381;SDS011;10350;51.280;12.400;2023-12-07T19:36:00;29.02;;;26.88;;
20381;SDS011;10350;51.280;12.400;2023-12-07T19:38:27;29.98;;;27.58;;
20381;SDS011;10350;51.280;12.400;2023-12-07T19:40:55;29.77;;;27.20;;
20381;SDS011;10350;51.280;12.400;2023-12-07T19:43:24;30.83;;;28.48;;
20381;SDS011;10350;51.280;12.400;2023-12-07T19:45:50;29.23;;;26.95;;
20381;SDS011;10350;51.280;12.400;2023-12-07T19:48:16;32.90;;;30.17;;
20381;SDS011;10350;51.280;12.400;2023-12-07T19:53:46;34.33;;;31.50;;
20381;SDS011;10350;51.280;12.400;2023-12-07T19:56:12;36.88;;;33.50;;
20381;SDS011;10350;51.280;12.400;2023-12-07T19:58:39;35.80;;;32.50;;
20381;SDS011;10350;51.280;12.400;2023-12-07T20:01:05;35.38;;;32.47;;
20381;SDS011;10350;51.280;12.400;2023-12-07T20:03:31;38.00;;;34.88;;
20381;SDS011;10350;51.280;12.400;2023-12-07T20:05:57;37.10;;;34.40;;
20381;SDS011;10350;51.280;12.400;2023-12-07T20:08:23;38.42;;;35.25;;
20381;SDS011;10350;51.280;12.400;2023-12-07T20:10:52;39.00;;;33.85;;
20381;SDS011;10350;51.280;12.400;2023-12-07T20:13:18;37.10;;;33.83;;
20381;SDS011;10350;51.280;12.400;2023-12-07T20:15:44;35.63;;;33.13;;
20381;SDS011;10350;51.280;12.400;2023-12-07T20:18:14;39.13;;;36.20;;
20381;SDS011;10350;51.280;12.400;2023-12-07T20:20:40;36.60;;;33.78;;
20381;SDS011;10350;51.280;12.400;2023-12-07T20:23:07;37.28;;;34.33;;
20381;SDS011;10350;51.280;12.400;2023-12-07T20:25:33;39.30;;;36.28;;
20381;SDS011;10350;51.280;12.400;2023-12-07T20:27:59;38.45;;;35.10;;
20381;SDS011;10350;51.280;12.400;2023-12-07T20:30:25;37.65;;;34.83;;
20381;SDS011;10350;51.280;12.400;2023-12-07T20:32:51;37.83;;;35.08;;
20381;SDS011;10350;51.280;12.400;2023-12-07T20:35:17;39.13;;;36.05;;
20381;SDS011;10350;51.280;12.400;2023-12-07T20:37:43;38.72;;;36.03;;
20381;SDS011;10350;51.280;12.400;2023-12-07T20:40:09;38.83;;;36.08;;
20381;SDS011;10350;51.280;12.400;2023-12-07T20:42:35;48.53;;;43.88;;
20381;SDS011;10350;51.280;12.400;2023-12-07T20:45:01;42.78;;;39.22;;
20381;SDS011;10350;51.280;12.400;2023-12-07T20:47:30;40.10;;;36.80;;
20381;SDS011;10350;51.280;12.400;2023-12-07T20:49:56;37.88;;;35.05;;
20381;SDS011;10350;51.280;12.400;2023-12-07T20:55:30;35.08;;;32.65;;
20381;SDS011;10350;51.280;12.400;2023-12-07T20:57:57;36.65;;;33.72;;
20381;SDS011;10350;51.280;12.400;2023-12-07T21:00:23;39.50;;;36.38;;
20381;SDS011;10350;51.280;12.400;2023-12-07T21:02:51;37.08;;;33.97;;
20381;SDS011;10350;51.280;12.400;2023-12-07T21:05:21;35.25;;;32.28;;
20381;SDS011;10350;51.280;12.400;2023-12-07T21:07:50;38.25;;;35.05;;
20381;SDS011;10350;51.280;12.400;2023-12-07T21:10:19;35.88;;;33.05;;
20381;SDS011;10350;51.280;12.400;2023-12-07T21:12:45;37.22;;;34.33;;
20381;SDS011;10350;51.280;12.400;2023-12-07T21:15:11;35.33;;;32.33;;
20381;SDS011;10350;51.280;12.400;2023-12-07T21:17:37;36.67;;;33.33;;
20381;SDS011;10350;51.280;12.400;2023-12-07T21:20:03;36.97;;;33.80;;
20381;SDS011;10350;51.280;12.400;2023-12-07T21:22:30;34.88;;;31.85;;
20381;SDS011;10350;51.280;12.400;2023-12-07T21:24:57;35.85;;;33.15;;
20381;SDS011;10350;51.280;12.400;2023-12-07T21:27:23;35.42;;;32.17;;
20381;SDS011;10350;51.280;12.400;2023-12-07T21:29:49;36.25;;;32.40;;
20381;SDS011;10350;51.280;12.400;2023-12-07T21:32:15;33.63;;;30.95;;
20381;SDS011;10350;51.280;12.400;2023-12-07T21:34:41;34.97;;;32.00;;
20381;SDS011;10350;51.280;12.400;2023-12-07T21:37:07;32.72;;;30.27;;
20381;SDS011;10350;51.280;12.400;2023-12-07T21:39:35;33.70;;;30.95;;
20381;SDS011;10350;51.280;12.400;2023-12-07T21:42:02;32.05;;;29.23;;
20381;SDS011;10350;51.280;12.400;2023-12-07T21:44:31;32.63;;;29.85;;
20381;SDS011;10350;51.280;12.400;2023-12-07T21:47:00;29.58;;;27.10;;
20381;SDS011;10350;51.280;12.400;2023-12-07T21:49:30;33.58;;;30.45;;
20381;SDS011;10350;51.280;12.400;2023-12-07T21:51:56;31.10;;;28.27;;
20381;SDS011;10350;51.280;12.400;2023-12-07T21:54:24;30.03;;;27.57;;
20381;SDS011;10350;51.280;12.400;2023-12-07T21:56:53;30.92;;;28.30;;
20381;SDS011;10350;51.280;12.400;2023-12-07T21:59:19;31.10;;;28.50;;
20381;SDS011;10350;51.280;12.400;2023-12-07T22:01:51;32.45;;;29.58;;
20381;SDS011;10350;51.280;12.400;2023-12-07T22:04:17;32.13;;;29.00;;
20381;SDS011;10350;51.280;12.400;2023-12-07T22:06:43;34.70;;;31.88;;
20381;SDS011;10350;51.280;12.400;2023-12-07T22:09:09;32.92;;;30.58;;
20381;SDS011;10350;51.280;12.400;2023-12-07T22:11:35;33.60;;;30.83;;
20381;SDS011;10350;51.280;12.400;2023-12-07T22:14:02;33.85;;;31.13;;
20381;SDS011;10350;51.280;12.400;2023-12-07T22:16:28;34.75;;;31.83;;
20381;SDS011;10350;51.280;12.400;2023-12-07T22:18:54;37.10;;;34.40;;
20381;SDS011;10350;51.280;12.400;2023-12-07T22:21:20;37.25;;;33.90;;
20381;SDS011;10350;51.280;12.400;2023-12-07T22:23:46;34.75;;;32.00;;
20381;SDS011;10350;51.280;12.400;2023-12-07T22:26:19;34.97;;;31.65;;
20381;SDS011;10350;51.280;12.400;2023-12-07T22:28:46;33.35;;;30.65;;
20381;SDS011;10350;51.280;12.400;2023-12-07T22:31:12;32.33;;;29.70;;
20381;SDS011;10350;51.280;12.400;2023-12-07T22:33:41;32.35;;;29.30;;
20381;SDS011;10350;51.280;12.400;2023-12-07T22:36:13;34.75;;;31.58;;
20381;SDS011;10350;51.280;12.400;2023-12-07T22:38:39;33.28;;;29.95;;
20381;SDS011;10350;51.280;12.400;2023-12-07T22:41:07;30.45;;;27.73;;
20381;SDS011;10350;51.280;12.400;2023-12-07T22:43:39;32.38;;;29.17;;
20381;SDS011;10350;51.280;12.400;2023-12-07T22:46:06;32.38;;;29.65;;
20381;SDS011;10350;51.280;12.400;2023-12-07T22:48:35;31.02;;;28.38;;
20381;SDS011;10350;51.280;12.400;2023-12-07T22:51:01;29.30;;;26.88;;
20381;SDS011;10350;51.280;12.400;2023-12-07T22:53:33;29.15;;;26.83;;
20381;SDS011;10350;51.280;12.400;2023-12-07T22:55:59;30.42;;;27.90;;
20381;SDS011;10350;51.280;12.400;2023-12-07T23:00:53;29.58;;;27.17;;
20381;SDS011;10350;51.280;12.400;2023-12-07T23:03:22;30.90;;;28.33;;
20381;SDS011;10350;51.280;12.400;2023-12-07T23:05:49;28.65;;;26.45;;
20381;SDS011;10350;51.280;12.400;2023-12-07T23:08:15;28.33;;;25.92;;
20381;SDS011;10350;51.280;12.400;2023-12-07T23:10:41;29.95;;;27.17;;
20381;SDS011;10350;51.280;12.400;2023-12-07T23:15:56;29.35;;;27.00;;
20381;SDS011;10350;51.280;12.400;2023-12-07T23:18:22;30.40;;;27.60;;
20381;SDS011;10350;51.280;12.400;2023-12-07T23:20:48;33.08;;;28.15;;
20381;SDS011;10350;51.280;12.400;2023-12-07T23:23:14;31.33;;;28.55;;
20381;SDS011;10350;51.280;12.400;2023-12-07T23:25:40;30.15;;;27.80;;
20381;SDS011;10350;51.280;12.400;2023-12-07T23:28:06;30.30;;;27.10;;
20381;SDS011;10350;51.280;12.400;2023-12-07T23:30:35;31.02;;;28.08;;
20381;SDS011;10350;51.280;12.400;2023-12-07T23:33:01;29.50;;;26.65;;
20381;SDS011;10350;51.280;12.400;2023-12-07T23:35:30;32.17;;;28.85;;
20381;SDS011;10350;51.280;12.400;2023-12-07T23:37:57;30.35;;;27.60;;
20381;SDS011;10350;51.280;12.400;2023-12-07T23:40:23;29.33;;;26.83;;
20381;SDS011;10350;51.280;12.400;2023-12-07T23:42:54;29.48;;;26.60;;
20381;SDS011;10350;51.280;12.400;2023-12-07T23:45:22;30.30;;;27.88;;
20381;SDS011;10350;51.280;12.400;2023-12-07T23:47:48;30.73;;;28.13;;
20381;SDS011;10350;51.280;12.400;2023-12-07T23:50:14;30.45;;;27.90;;
20381;SDS011;10350;51.280;12.400;2023-12-07T23:52:40;29.73;;;27.17;;
20381;SDS011;10350;51.280;12.400;2023-12-07T23:55:07;29.80;;;27.13;;
20381;SDS011;10350;51.280;12.400;2023-12-07T23:57:33;29.88;;;27.48;;
20381;SDS011;10350;51.280;12.400;2023-12-07T23:59:59;31.60;;;29.13;;
